AirNav   Everest Fuels
 
 1275 users online  

3WA1 Johnson's Landing Ultralight Flightpark
Leavenworth, Washington, USA

GOING TO LEAVENWORTH?


FAA INFORMATION EFFECTIVE 25 MARCH 2021

Location

FAA Identifier: 3WA1
Lat/Long: 47-36-13.0000N 120-40-12.3170W
47-36.216667N 120-40.205283W
47.6036111,-120.6700881
(estimated)
Elevation: 1260 ft. / 384 m (estimated)
Variation: 19E (1995)
From city: 1 mile NW of LEAVENWORTH, WA
Time zone: UTC -7 (UTC -8 during Standard Time)
Zip code: 98826

Ultralight Flight Park Operations

Ultralight Flight Park use: Private use. Permission required prior to landing
Activation date: 03/1996
Control tower: no
ARTCC: SEATTLE CENTER
FSS: SEATTLE FLIGHT SERVICE STATION
Attendance: UNATNDD
Segmented circle: no

Nearby radio navigation aids

VOR radial/distance  VOR name  Freq  Var
EATr288/22.3WENATCHEE VOR/DME111.0015E
ELNr325/35.8ELLENSBURG VOR/DME117.9021E

Ultralight Flight Park Services

Runway Information

Runway 16/34

Dimensions: 800 x 60 ft. / 244 x 18 m
Surface: turf
Operational restrictions: SLOPES UP 60 FT TO THE NORTH END.
RUNWAY 16  RUNWAY 34
Traffic pattern: leftleft

Ultralight Flight Park Ownership and Management from official FAA records

Ownership: Privately-owned
Owner: ROBERT K JOHNSON
10292 SKI HILL DRIVE
LEAVENWORTH, WA 98826
Phone (509) 264-1205
Manager: ROBERT K JOHNSON
10292 SKI HILL DRIVE
LEAVENWORTH, WA 98826
Phone (509) 264-1205

Ultralight Flight Park Operational Statistics

Aircraft based on the field: 2
Single engine airplanes: 2
    

Additional Remarks

RY TO SERVE SMALL AIRPLANES WITH APCH SPEEDS OF LESS THAN 50 KNOTS.
FOR CD CTC SEATTLE ARTCC AT 253-351-3694.

Instrument Procedures

There are no published instrument procedures at 3WA1.

Some nearby airports with instrument procedures:

KEAT - Pangborn Memorial Airport (22 nm SE)
KELN - Bowers Field Airport (35 nm S)
KEPH - Ephrata Municipal Airport (50 nm E)
KMWH - Grant County International Airport (60 nm SE)
S43 - Harvey Field Airport (61 nm W)
 
Loc | Ops | Rwys | IFR | FBO | Links
Com | Nav | Svcs | Stats | Notes
Area around 3WA1 (Johnson's Landing Ultralight Flightpark)
 
Road maps at: MapQuest Bing Google
 
Aerial photo
No photo
 
Sectional chart

 
Airport distance calculator
Flying to Johnson's Landing Ultralight Flightpark? Find the distance to fly.

From to 3WA1

Sunrise and sunset
Times for 17-Apr-2021
 Local
(UTC-7)
 Zulu
(UTC)
Morning civil twilight05:3812:38
Sunrise06:1113:11
Sunset19:5402:54
Evening civil twilight20:2603:26

Current date and time
Zulu (UTC)  17-Apr-2021 16:23:11
Local (UTC-7)  17-Apr-2021 09:23:11
 
METAR
KEAT 
23nm SE 
171555Z AUTO 27008KT 10SM CLR 10/M01 A3028 RMK AO2 SLP255 T01001006
KSMP 
33nm SW 
171556Z AUTO VRB03KT 10SM CLR 12/M03 A3029 RMK AO2 SLP250 T01221033
KELN 
35nm S 
171553Z AUTO 00000KT 10SM CLR 09/M01 A3029 RMK AO2 SLP259 T00891006
TAF
KEAT 
23nm SE 
171120Z 1712/1812 27010KT P6SM SKC FM171700 13006KT P6SM SKC FM180600 33007KT P6SM SKC
NOTAMs
Click for the latest NOTAMs
NOTAMs are issued by the DoD/FAA and will open in a separate window not controlled by AirNav.

 

 
 

Would you like to see your business listed on this page?

 If your business provides an interesting product or service to pilots, flight crews, aircraft, or users of the Johnson's Landing Ultralight Flightpark, you should consider listing it here.  To start the listing process, click on the button below
 
Add a business
 

Other Pages about Johnson's Landing Ultralight Flightpark

Update a link
 
Copyright © AirNav, LLC. All rights reserved. Privacy Policy  Contact